Foules, Louisiana
Current Conditions -  °F | °C
As of 3:35 PM on Sunday 23 Nov 2014 (Local Time) from KHEZ Reporting Station
Broken Clouds Broken Clouds  
Wind Chill: 72°   Ceiling: 3500
Heat Index: 72°   Visibility: 10mi
Dew Point: 57°   Wind: 10mph
Humidity: 60%   Direction: 190°S
Pressure: 29.56"   Gusts: 21mph
Location:  31.828°N, 91.4836°W
Report Text: KHEZ 232135Z AUTO 19009G18KT 10SM BKN035 22/14 A2956 RMK AO1
Loading
Personal Weather Stations






























Interactive Weather Map New forecast layout! Learn more

10-Day Weather Forecast

Advertisements
Track Severe Weather on mobile